createdAt,value
2019-01-04T00:04:33.800Z,100114.77
2019-01-04T00:09:40.045Z,100118.52
2019-01-04T00:14:45.397Z,100110.59
2019-01-04T00:19:50.573Z,100116.48
2019-01-04T00:24:55.722Z,100114.83
2019-01-04T00:30:01.003Z,100123.38
2019-01-04T00:35:06.618Z,100120.77
2019-01-04T00:40:11.857Z,100121.66
2019-01-04T00:45:17.024Z,100127.34
2019-01-04T00:50:22.352Z,100130.46
2019-01-04T00:56:10.493Z,100117.09
2019-01-04T01:02:08.622Z,100124.57
2019-01-04T01:07:54.234Z,100128.69
2019-01-04T01:13:38.974Z,100135.91
2019-01-04T01:19:35.719Z,100138.63
2019-01-04T01:25:15.331Z,100147.86
2019-01-04T01:31:01.612Z,100156.02
2019-01-04T01:36:24.231Z,100158.80
2019-01-04T01:42:13.500Z,100150.33
2019-01-04T01:47:54.622Z,100157.03
2019-01-04T01:52:59.863Z,100149.89
2019-01-04T01:58:05.043Z,100152.96
2019-01-04T02:03:10.199Z,100153.36
2019-01-04T02:08:16.129Z,100153.75
2019-01-04T02:13:21.301Z,100153.94
2019-01-04T02:18:26.545Z,100149.56
2019-01-04T02:23:31.732Z,100151.78
2019-01-04T02:28:37.339Z,100153.70
2019-01-04T02:33:43.222Z,100155.29
2019-01-04T02:38:48.485Z,100156.94
2019-01-04T02:43:53.688Z,100150.41
2019-01-04T02:48:59.943Z,100147.42
2019-01-04T02:54:05.203Z,100139.93
2019-01-04T02:59:12.358Z,100144.63
2019-01-04T03:04:17.909Z,100137.95
2019-01-04T03:09:23.083Z,100138.52
2019-01-04T03:14:28.358Z,100143.02
2019-01-04T03:19:34.632Z,100132.08
2019-01-04T03:24:39.800Z,100129.03
2019-01-04T03:29:44.987Z,100117.04
2019-01-04T03:34:50.272Z,100112.06
2019-01-04T03:39:56.481Z,100110.99
2019-01-04T03:45:01.908Z,100109.22
2019-01-04T03:50:07.959Z,100112.45
2019-01-04T03:55:13.261Z,100116.46
2019-01-04T04:00:18.525Z,100120.10
2019-01-04T04:05:24.606Z,100108.94
2019-01-04T04:10:29.770Z,100099.28
2019-01-04T04:15:36.439Z,100095.25
2019-01-04T04:20:41.639Z,100088.63
2019-01-04T04:25:46.864Z,100091.01
2019-01-04T04:30:52.068Z,100087.95
2019-01-04T04:35:57.265Z,100087.04
2019-01-04T04:41:02.549Z,100094.58
2019-01-04T04:46:07.744Z,100086.58
2019-01-04T04:51:12.978Z,100078.16
2019-01-04T04:56:18.175Z,100071.08
2019-01-04T05:01:23.383Z,100067.91
2019-01-04T05:06:28.695Z,100065.09
2019-01-04T05:11:34.251Z,100071.66
2019-01-04T05:16:39.444Z,100066.34
2019-01-04T05:21:44.653Z,100064.20
2019-01-04T05:26:49.854Z,100054.52
2019-01-04T05:31:55.061Z,100049.31
2019-01-04T05:37:00.264Z,100030.36
2019-01-04T05:42:06.910Z,100030.50
2019-01-04T05:47:12.110Z,100034.70
2019-01-04T05:52:17.706Z,100035.84
2019-01-04T05:57:22.910Z,100034.19
2019-01-04T06:02:29.187Z,100037.13
2019-01-04T06:07:34.395Z,100038.31
2019-01-04T06:12:39.588Z,100047.54
2019-01-04T06:17:44.778Z,100043.63
2019-01-04T06:22:50.840Z,100036.20
2019-01-04T06:27:56.379Z,100039.54
2019-01-04T06:33:01.992Z,100030.89
2019-01-04T06:38:07.180Z,100034.52
2019-01-04T06:43:13.590Z,100036.87
2019-01-04T06:48:19.215Z,100041.22
2019-01-04T06:53:25.013Z,100048.25
2019-01-04T06:58:30.214Z,100054.34
2019-01-04T07:03:35.726Z,100052.09
2019-01-04T07:08:41.704Z,100077.22
2019-01-04T07:13:46.909Z,100087.53
2019-01-04T07:18:52.110Z,100089.06
2019-01-04T07:23:57.691Z,100082.10
2019-01-04T07:29:02.902Z,100075.53
2019-01-04T07:34:09.665Z,100063.73
2019-01-04T07:39:14.873Z,100051.00
2019-01-04T07:44:20.065Z,100059.55
2019-01-04T07:49:25.282Z,100065.88
2019-01-04T07:54:30.897Z,100061.42
2019-01-04T07:59:36.285Z,100064.68
2019-01-04T08:04:41.823Z,100052.70
2019-01-04T08:09:47.409Z,100068.50
2019-01-04T08:14:53.475Z,100063.75
2019-01-04T08:19:59.433Z,100069.69
2019-01-04T08:25:05.118Z,100051.72
2019-01-04T08:30:15.430Z,100037.16
2019-01-04T08:35:21.781Z,100033.30
2019-01-04T08:40:27.050Z,100036.89
2019-01-04T08:45:32.315Z,100029.16
2019-01-04T08:50:37.922Z,100031.03
2019-01-04T08:55:43.402Z,100021.98
2019-01-04T09:00:48.597Z,100013.71
2019-01-04T09:05:53.895Z,100000.18
2019-01-04T09:10:59.098Z,99997.16
2019-01-04T09:16:04.631Z,99994.89
2019-01-04T09:21:09.837Z,99995.08
2019-01-04T09:26:15.385Z,99992.74
2019-01-04T09:31:20.604Z,99994.08
2019-01-04T09:36:26.030Z,99995.80
2019-01-04T09:41:35.279Z,99981.45
2019-01-04T09:46:40.863Z,99974.16
2019-01-04T09:51:46.084Z,99979.72
2019-01-04T09:56:51.302Z,99987.11
2019-01-04T10:01:56.892Z,99986.56
2019-01-04T10:07:02.094Z,99974.89
2019-01-04T10:12:07.294Z,99961.17
2019-01-04T10:17:12.545Z,99937.97
2019-01-04T10:22:18.216Z,99930.28
2019-01-04T10:27:23.409Z,99931.47
2019-01-04T10:32:28.922Z,99912.16
2019-01-04T10:37:34.483Z,99895.20
2019-01-04T10:42:39.667Z,99871.66
2019-01-04T10:47:45.177Z,99845.59
2019-01-04T10:52:50.708Z,99846.86
2019-01-04T10:57:57.035Z,99842.48
2019-01-04T11:03:02.224Z,99827.03
2019-01-04T11:08:07.420Z,99822.06
2019-01-04T11:13:12.614Z,99821.47
2019-01-04T11:18:17.846Z,99819.67
2019-01-04T11:24:07.061Z,99801.06
2019-01-04T11:29:46.226Z,99792.52
2019-01-04T11:35:44.234Z,99776.16
2019-01-04T11:41:16.495Z,99761.21
2019-01-04T11:46:47.047Z,99751.02
2019-01-04T11:52:06.140Z,99744.73
2019-01-04T11:57:11.333Z,99743.90
2019-01-04T12:02:16.525Z,99737.13
2019-01-04T12:07:21.857Z,99727.06
2019-01-04T12:12:27.410Z,99723.73
2019-01-04T12:17:32.601Z,99695.85
2019-01-04T12:22:37.818Z,99690.75
2019-01-04T12:27:44.161Z,99694.41
2019-01-04T12:32:49.348Z,99696.67
2019-01-04T12:37:54.530Z,99691.45
2019-01-04T12:42:59.746Z,99673.52
2019-01-04T12:48:04.956Z,99666.06
2019-01-04T12:53:10.205Z,99669.12
2019-01-04T12:58:15.825Z,99669.02
2019-01-04T13:03:22.590Z,99660.97
2019-01-04T13:08:28.123Z,99656.22
2019-01-04T13:13:33.819Z,99643.16
2019-01-04T13:18:39.005Z,99633.90
2019-01-04T13:23:45.348Z,99630.82
2019-01-04T13:28:50.538Z,99628.20
2019-01-04T13:33:55.739Z,99606.86
2019-01-04T13:39:01.398Z,99602.34
2019-01-04T13:44:08.200Z,99586.78
2019-01-04T13:49:13.451Z,99598.66
2019-01-04T13:54:18.738Z,99581.33
2019-01-04T13:59:24.015Z,99560.47
2019-01-04T14:04:29.303Z,99570.30
2019-01-04T14:09:34.581Z,99590.63
2019-01-04T14:14:40.830Z,99581.74
2019-01-04T14:19:46.232Z,99575.34
2019-01-04T14:24:51.841Z,99585.91
2019-01-04T14:29:57.142Z,99566.45
2019-01-04T14:35:02.763Z,99570.44
2019-01-04T14:40:09.494Z,99579.92
2019-01-04T14:45:16.019Z,99598.89
2019-01-04T14:50:21.240Z,99606.84
2019-01-04T14:55:26.599Z,99603.16
2019-01-04T15:00:32.347Z,99587.96
2019-01-04T15:05:38.151Z,99571.59
2019-01-04T15:10:43.689Z,99567.66
2019-01-04T15:15:49.271Z,99559.25
2019-01-04T15:20:54.867Z,99567.52
2019-01-04T15:26:01.130Z,99563.98
2019-01-04T15:31:06.338Z,99555.12
2019-01-04T15:36:12.458Z,99553.94
2019-01-04T15:41:17.817Z,99549.69
2019-01-04T15:46:23.689Z,99553.60
2019-01-04T15:51:29.255Z,99545.53
2019-01-04T15:56:34.591Z,99552.63
2019-01-04T16:01:40.943Z,99550.13
2019-01-04T16:06:46.544Z,99548.59
2019-01-04T16:11:52.184Z,99534.23
2019-01-04T16:16:57.756Z,99508.60
2019-01-04T16:22:03.738Z,99501.84
2019-01-04T16:27:09.282Z,99481.52
2019-01-04T16:32:14.535Z,99476.44
2019-01-04T16:37:20.107Z,99464.69
2019-01-04T16:42:25.990Z,99440.27
2019-01-04T16:47:31.327Z,99445.81
2019-01-04T16:52:36.602Z,99456.16
2019-01-04T16:57:41.882Z,99461.98
2019-01-04T17:02:47.459Z,99463.19
2019-01-04T17:07:52.753Z,99450.13
2019-01-04T17:12:58.024Z,99441.47
2019-01-04T17:18:03.532Z,99444.48
2019-01-04T17:23:09.306Z,99453.14
2019-01-04T17:28:15.333Z,99452.20
2019-01-04T17:33:20.541Z,99471.34
2019-01-04T17:38:25.741Z,99447.39
2019-01-04T17:43:31.001Z,99432.33
2019-01-04T17:48:36.681Z,99435.20
2019-01-04T17:53:42.151Z,99431.39
2019-01-04T17:58:47.357Z,99436.48
2019-01-04T18:03:52.856Z,99438.25
2019-01-04T18:08:58.064Z,99441.91
2019-01-04T18:14:03.371Z,99434.78
2019-01-04T18:19:09.321Z,99439.39
2019-01-04T18:24:14.531Z,99451.38
2019-01-04T18:29:19.825Z,99455.36
2019-01-04T18:34:25.027Z,99471.39
2019-01-04T18:39:30.244Z,99464.49
2019-01-04T18:44:35.786Z,99462.25
2019-01-04T18:49:41.287Z,99468.64
2019-01-04T18:54:46.499Z,99471.48
2019-01-04T18:59:51.876Z,99472.19
2019-01-04T19:04:57.234Z,99470.88
2019-01-04T19:10:03.505Z,99466.23
2019-01-04T19:15:09.218Z,99461.34
2019-01-04T19:20:14.397Z,99457.42
2019-01-04T19:25:19.720Z,99456.45
2019-01-04T19:30:25.645Z,99444.37
2019-01-04T19:35:31.083Z,99456.22
2019-01-04T19:40:37.276Z,99452.49
2019-01-04T19:45:42.834Z,99456.84
2019-01-04T19:50:48.101Z,99445.79
2019-01-04T19:55:54.202Z,99444.94
2019-01-04T20:01:00.169Z,99444.43
2019-01-04T20:06:46.886Z,99443.22
2019-01-04T20:13:04.352Z,99456.00
2019-01-04T20:18:43.271Z,99450.81
2019-01-04T20:24:10.270Z,99451.28
2019-01-04T20:29:34.440Z,99434.75
2019-01-04T20:35:07.637Z,99435.08
2019-01-04T20:40:28.229Z,99433.55
2019-01-04T20:45:55.536Z,99426.91
2019-01-04T20:51:20.064Z,99416.78
2019-01-04T20:56:50.288Z,99424.23
2019-01-04T21:02:14.366Z,99419.02
2019-01-04T21:07:38.203Z,99408.17
2019-01-04T21:13:01.731Z,99410.03
2019-01-04T21:18:41.455Z,99404.45
2019-01-04T21:24:19.337Z,99403.36
2019-01-04T21:29:45.069Z,99388.98
2019-01-04T21:35:08.838Z,99387.91
2019-01-04T21:40:25.325Z,99368.99
2019-01-04T21:45:57.427Z,99367.07
2019-01-04T21:51:32.006Z,99355.86
2019-01-04T21:56:56.690Z,99362.62
2019-01-04T22:02:38.125Z,99345.84
2019-01-04T22:08:01.967Z,99346.17
2019-01-04T22:13:32.191Z,99332.70
2019-01-04T22:18:56.549Z,99332.30
2019-01-04T22:24:20.295Z,99334.02
2019-01-04T22:29:45.480Z,99325.63
2019-01-04T22:35:18.773Z,99325.30
2019-01-04T22:40:58.360Z,99299.20
2019-01-04T22:46:28.944Z,99305.60
2019-01-04T22:51:55.969Z,99291.50
2019-01-04T22:57:29.862Z,99276.19
2019-01-04T23:03:09.680Z,99270.08
2019-01-04T23:08:43.365Z,99282.66
2019-01-04T23:14:07.367Z,99278.73
2019-01-04T23:19:37.375Z,99281.34
2019-01-04T23:25:00.425Z,99266.95
2019-01-04T23:30:24.892Z,99246.65
2019-01-04T23:36:01.623Z,99236.69
2019-01-04T23:41:21.517Z,99226.55
2019-01-04T23:46:44.577Z,99231.56
2019-01-04T23:52:21.421Z,99220.36
2019-01-04T23:57:44.586Z,99215.52
